createdAt,value
2022-08-18T00:01:15.866Z,18.20
2022-08-18T00:03:56.765Z,18.20
2022-08-18T00:06:32.168Z,18.20
2022-08-18T00:09:03.130Z,18.10
2022-08-18T00:11:41.444Z,18.20
2022-08-18T00:14:22.106Z,18.10
2022-08-18T00:16:54.971Z,18.10
2022-08-18T00:19:47.588Z,18.10
2022-08-18T00:22:15.894Z,18.10
2022-08-18T00:24:48.256Z,18.00
2022-08-18T00:27:23.227Z,18.00
2022-08-18T00:29:53.894Z,18.00
2022-08-18T00:32:28.232Z,18.00
2022-08-18T00:34:57.024Z,18.00
2022-08-18T00:37:25.853Z,18.00
2022-08-18T00:39:54.944Z,18.00
2022-08-18T00:42:30.513Z,18.10
2022-08-18T00:45:02.188Z,18.10
2022-08-18T00:47:41.123Z,18.10
2022-08-18T00:50:15.961Z,18.00
2022-08-18T00:52:52.424Z,18.10
2022-08-18T00:55:22.988Z,18.00
2022-08-18T00:57:56.092Z,18.00
2022-08-18T01:00:24.704Z,18.00
2022-08-18T01:03:00.449Z,18.00
2022-08-18T01:05:33.867Z,17.90
2022-08-18T01:08:02.689Z,17.90
2022-08-18T01:10:35.269Z,17.90
2022-08-18T01:13:04.734Z,17.90
2022-08-18T01:15:33.940Z,18.00
2022-08-18T01:18:26.352Z,17.90
2022-08-18T01:21:27.265Z,17.90
2022-08-18T01:23:58.579Z,17.90
2022-08-18T01:26:28.517Z,17.90
2022-08-18T01:29:04.844Z,17.80
2022-08-18T01:31:38.288Z,17.80
2022-08-18T01:34:08.544Z,17.80
2022-08-18T01:36:38.923Z,17.80
2022-08-18T01:39:11.124Z,17.80
2022-08-18T01:41:40.523Z,17.80
2022-08-18T01:44:11.531Z,17.80
2022-08-18T01:46:42.304Z,17.80
2022-08-18T01:49:13.257Z,17.80
2022-08-18T01:51:42.668Z,17.70
2022-08-18T01:54:15.590Z,17.80
2022-08-18T01:56:44.839Z,17.80
2022-08-18T01:59:14.628Z,17.80
2022-08-18T02:01:50.395Z,17.80
2022-08-18T02:04:35.681Z,17.70
2022-08-18T02:07:08.670Z,17.80
2022-08-18T02:09:40.479Z,17.80
2022-08-18T02:12:10.144Z,17.70
2022-08-18T02:14:39.295Z,17.70
2022-08-18T02:17:10.141Z,17.70
2022-08-18T02:19:40.817Z,17.70
2022-08-18T02:22:11.648Z,17.70
2022-08-18T02:24:41.924Z,17.60
2022-08-18T02:27:12.004Z,17.60
2022-08-18T02:29:41.061Z,17.70
2022-08-18T02:32:09.859Z,17.60
2022-08-18T02:34:38.277Z,17.50
2022-08-18T02:37:06.711Z,17.50
2022-08-18T02:39:37.894Z,17.50
2022-08-18T02:42:09.103Z,17.50
2022-08-18T02:44:37.620Z,17.40
2022-08-18T02:47:06.113Z,17.30
2022-08-18T02:49:36.798Z,17.40
2022-08-18T02:52:06.072Z,17.40
2022-08-18T02:54:35.243Z,17.40
2022-08-18T02:57:10.613Z,17.50
2022-08-18T02:59:40.480Z,17.30
2022-08-18T03:02:10.039Z,17.30
2022-08-18T03:04:38.586Z,17.30
2022-08-18T03:07:09.240Z,17.20
2022-08-18T03:09:39.415Z,17.30
2022-08-18T03:12:10.344Z,17.30
2022-08-18T03:14:39.887Z,17.20
2022-08-18T03:17:10.412Z,17.30
2022-08-18T03:19:38.847Z,17.30
2022-08-18T03:22:27.627Z,17.30
2022-08-18T03:24:58.623Z,17.30
2022-08-18T03:27:28.531Z,17.30
2022-08-18T03:29:58.779Z,17.30
2022-08-18T03:32:27.562Z,17.40
2022-08-18T03:34:56.010Z,17.30
2022-08-18T03:37:24.611Z,17.30
2022-08-18T03:39:53.067Z,17.30
2022-08-18T03:42:22.420Z,17.30
2022-08-18T03:44:52.390Z,17.30
2022-08-18T03:47:21.157Z,17.40
2022-08-18T03:49:49.911Z,17.50
2022-08-18T03:52:18.389Z,17.40
2022-08-18T03:54:47.778Z,17.40
2022-08-18T03:57:16.261Z,17.60
2022-08-18T03:59:44.780Z,17.50
2022-08-18T04:02:15.393Z,17.50
2022-08-18T04:04:43.807Z,17.50
2022-08-18T04:07:17.474Z,17.40
2022-08-18T04:09:46.090Z,17.50
2022-08-18T04:12:17.561Z,17.40
2022-08-18T04:14:49.764Z,17.40
2022-08-18T04:17:24.309Z,17.50
2022-08-18T04:19:53.265Z,17.40
2022-08-18T04:22:22.637Z,17.40
2022-08-18T04:24:51.302Z,17.40
2022-08-18T04:27:20.429Z,17.40
2022-08-18T04:29:49.329Z,17.40
2022-08-18T04:32:19.341Z,17.30
2022-08-18T04:34:47.775Z,17.30
2022-08-18T04:37:16.628Z,17.30
2022-08-18T04:43:55.621Z,17.40
2022-08-18T04:46:24.507Z,17.40
2022-08-18T04:48:58.424Z,17.40
2022-08-18T04:52:22.632Z,17.40
2022-08-18T04:54:16.975Z,17.50
2022-08-18T04:56:45.437Z,17.40
2022-08-18T04:59:15.537Z,17.40
2022-08-18T05:01:47.673Z,17.60
2022-08-18T05:04:18.781Z,17.50
2022-08-18T05:06:48.192Z,17.50
2022-08-18T05:09:22.971Z,17.50
2022-08-18T05:11:52.116Z,17.60
2022-08-18T05:14:21.369Z,17.60
2022-08-18T05:16:51.779Z,17.60
2022-08-18T05:19:26.523Z,17.70
2022-08-18T05:21:59.830Z,17.70
2022-08-18T05:24:36.793Z,17.70
2022-08-18T05:27:07.428Z,17.80
2022-08-18T05:29:36.698Z,17.80
2022-08-18T05:32:10.690Z,17.80
2022-08-18T05:35:04.538Z,17.90
2022-08-18T05:37:39.807Z,18.00
2022-08-18T05:40:11.608Z,18.00
2022-08-18T05:42:41.592Z,18.00
2022-08-18T05:45:12.503Z,18.10
2022-08-18T05:47:41.022Z,18.10
2022-08-18T05:50:16.304Z,18.10
2022-08-18T05:52:52.664Z,18.20
2022-08-18T05:55:47.764Z,18.30
2022-08-18T05:58:20.802Z,18.30
2022-08-18T06:00:57.455Z,18.30
2022-08-18T06:03:31.415Z,18.40
2022-08-18T06:06:20.766Z,18.50
2022-08-18T06:08:57.399Z,18.50
2022-08-18T06:11:26.006Z,18.70
2022-08-18T06:13:59.602Z,18.60
2022-08-18T06:16:44.557Z,18.70
2022-08-18T06:19:27.975Z,18.70
2022-08-18T06:22:04.379Z,18.80
2022-08-18T06:24:39.540Z,18.80
2022-08-18T06:27:15.332Z,18.90
2022-08-18T06:29:58.816Z,19.10
2022-08-18T06:32:43.605Z,19.20
2022-08-18T06:35:19.456Z,19.50
2022-08-18T06:38:16.175Z,19.90
2022-08-18T06:40:44.619Z,20.00
2022-08-18T06:43:16.974Z,20.40
2022-08-18T06:45:52.954Z,20.70
2022-08-18T06:48:30.140Z,20.90
2022-08-18T06:51:01.347Z,21.10
2022-08-18T06:53:53.484Z,21.20
2022-08-18T06:56:26.178Z,21.30
2022-08-18T06:58:55.886Z,21.30
2022-08-18T07:01:25.539Z,21.30
2022-08-18T07:03:58.218Z,21.30
2022-08-18T07:06:31.363Z,21.30
2022-08-18T07:09:21.521Z,21.30
2022-08-18T07:12:02.797Z,21.40
2022-08-18T07:14:31.357Z,21.50
2022-08-18T07:17:11.619Z,21.60
2022-08-18T07:19:40.715Z,21.70
2022-08-18T07:22:11.506Z,21.70
2022-08-18T07:24:45.225Z,21.50
2022-08-18T07:27:17.485Z,21.50
2022-08-18T07:30:01.723Z,21.50
2022-08-18T07:32:36.570Z,21.40
2022-08-18T07:35:11.999Z,21.60
2022-08-18T07:37:46.750Z,21.60
2022-08-18T07:40:23.530Z,21.70
2022-08-18T07:43:02.035Z,21.90
2022-08-18T07:45:37.005Z,21.90
2022-08-18T07:48:36.537Z,22.40
2022-08-18T07:51:09.125Z,22.30
2022-08-18T07:53:54.790Z,22.50
2022-08-18T07:56:37.712Z,22.60
2022-08-18T07:59:16.685Z,22.60
2022-08-18T08:01:49.974Z,22.70
2022-08-18T08:04:31.562Z,22.70
2022-08-18T08:07:23.968Z,22.80
2022-08-18T08:10:22.896Z,22.90
2022-08-18T08:13:09.152Z,23.00
2022-08-18T08:15:49.551Z,23.10
2022-08-18T08:18:25.033Z,23.20
2022-08-18T08:20:57.247Z,23.30
2022-08-18T08:23:31.747Z,23.40
2022-08-18T08:26:27.896Z,23.50
2022-08-18T08:29:09.872Z,23.70
2022-08-18T08:31:49.167Z,23.90
2022-08-18T08:34:22.177Z,24.20
2022-08-18T08:36:59.095Z,24.20
2022-08-18T08:39:36.753Z,24.40
2022-08-18T08:42:31.375Z,24.40
2022-08-18T08:45:07.866Z,24.50
2022-08-18T08:47:41.985Z,24.50
2022-08-18T08:50:14.585Z,24.50
2022-08-18T08:52:47.449Z,24.40
2022-08-18T08:55:18.876Z,24.30
2022-08-18T08:57:53.653Z,24.30
2022-08-18T09:00:24.185Z,24.30
2022-08-18T09:03:08.562Z,24.30
2022-08-18T09:05:44.354Z,24.10
2022-08-18T09:08:51.268Z,23.90
2022-08-18T09:11:39.815Z,23.70
2022-08-18T09:14:24.969Z,23.90
2022-08-18T09:17:11.300Z,24.00
2022-08-18T09:20:06.594Z,24.10
2022-08-18T09:22:45.504Z,24.30
2022-08-18T09:25:34.200Z,24.50
2022-08-18T09:28:12.549Z,24.90
2022-08-18T09:30:49.080Z,25.10
2022-08-18T09:33:35.749Z,25.30
2022-08-18T09:36:29.869Z,25.40
2022-08-18T09:39:23.257Z,25.40
2022-08-18T09:41:55.979Z,25.50
2022-08-18T09:45:01.995Z,25.50
2022-08-18T09:48:00.188Z,25.40
2022-08-18T09:50:55.353Z,25.60
2022-08-18T09:53:51.009Z,25.70
2022-08-18T09:57:19.487Z,25.70
2022-08-18T10:00:13.100Z,25.70
2022-08-18T10:03:13.832Z,25.90
2022-08-18T10:05:59.704Z,25.70
2022-08-18T10:08:46.129Z,25.40
2022-08-18T10:11:36.971Z,25.10
2022-08-18T10:14:31.551Z,24.70
2022-08-18T10:17:23.818Z,24.40
2022-08-18T10:20:02.131Z,24.20
2022-08-18T10:22:47.881Z,23.90
2022-08-18T10:25:33.748Z,23.80
2022-08-18T10:28:05.370Z,23.70
2022-08-18T10:31:06.547Z,23.50
2022-08-18T10:34:15.995Z,23.50
2022-08-18T10:36:54.014Z,23.50
2022-08-18T10:39:50.278Z,23.70
2022-08-18T10:42:30.913Z,24.30
2022-08-18T10:45:10.742Z,24.90
2022-08-18T10:47:39.423Z,25.60
2022-08-18T10:50:19.587Z,26.20
2022-08-18T10:53:24.798Z,26.40
2022-08-18T10:56:01.197Z,26.60
2022-08-18T10:58:54.529Z,26.30
2022-08-18T11:01:44.758Z,25.90
2022-08-18T11:04:34.749Z,25.50
2022-08-18T11:07:12.127Z,25.10
2022-08-18T11:09:46.013Z,24.80
2022-08-18T11:13:00.243Z,24.70
2022-08-18T11:15:42.682Z,24.50
2022-08-18T11:18:28.963Z,24.40
2022-08-18T11:21:31.348Z,24.20
2022-08-18T11:24:11.917Z,24.20
2022-08-18T11:26:44.143Z,24.20
2022-08-18T11:29:32.177Z,24.20
2022-08-18T11:32:12.393Z,24.30
2022-08-18T11:34:51.901Z,24.40
2022-08-18T11:37:26.980Z,24.70
2022-08-18T11:39:58.510Z,25.10
2022-08-18T11:42:33.198Z,25.70
2022-08-18T11:45:16.778Z,26.00
2022-08-18T11:48:03.052Z,26.20
2022-08-18T11:50:33.621Z,26.30
2022-08-18T11:53:18.809Z,26.30
2022-08-18T11:56:13.566Z,26.30
2022-08-18T11:58:45.998Z,26.60
2022-08-18T12:04:37.380Z,27.20
2022-08-18T12:07:09.252Z,27.30
2022-08-18T12:15:44.255Z,26.60
2022-08-18T12:18:29.007Z,26.30
2022-08-18T12:20:59.075Z,26.00
2022-08-18T12:23:27.954Z,25.80
2022-08-18T12:26:27.414Z,25.60
2022-08-18T12:29:01.481Z,25.50
2022-08-18T12:34:25.125Z,25.30
2022-08-18T12:37:57.814Z,25.30
2022-08-18T12:40:06.331Z,25.10
2022-08-18T12:42:35.663Z,25.00
2022-08-18T12:45:04.392Z,25.00
2022-08-18T12:47:40.106Z,24.90
2022-08-18T12:50:12.373Z,24.90
2022-08-18T12:52:41.045Z,25.10
2022-08-18T12:55:21.280Z,25.20
2022-08-18T12:58:01.073Z,25.30
2022-08-18T13:00:29.623Z,25.40
2022-08-18T13:02:59.277Z,25.50
2022-08-18T13:05:30.043Z,25.60
2022-08-18T13:08:04.506Z,25.70
2022-08-18T13:10:43.151Z,25.60
2022-08-18T13:13:15.191Z,25.70
2022-08-18T13:15:44.291Z,25.90
2022-08-18T13:18:29.032Z,26.10
2022-08-18T13:20:59.552Z,26.30
2022-08-18T13:23:28.529Z,26.60
2022-08-18T13:26:01.219Z,26.60
2022-08-18T13:28:35.942Z,26.70
2022-08-18T13:31:21.104Z,26.80
2022-08-18T13:33:59.351Z,26.80
2022-08-18T13:36:44.300Z,27.20
2022-08-18T13:39:16.999Z,27.40
2022-08-18T13:41:46.534Z,27.50
2022-08-18T13:44:18.646Z,27.70
2022-08-18T13:46:49.357Z,27.60
2022-08-18T13:49:23.519Z,27.50
2022-08-18T13:52:00.898Z,27.50
2022-08-18T13:54:35.504Z,27.50
2022-08-18T13:57:04.891Z,27.40
2022-08-18T13:59:35.180Z,27.20
2022-08-18T14:02:09.097Z,27.20
2022-08-18T14:04:38.340Z,27.10
2022-08-18T14:07:11.129Z,27.10
2022-08-18T14:09:41.102Z,26.90
2022-08-18T14:12:23.761Z,26.90
2022-08-18T14:14:54.331Z,26.70
2022-08-18T14:17:25.918Z,26.60
2022-08-18T14:20:21.345Z,26.50
2022-08-18T14:23:12.101Z,26.50
2022-08-18T14:25:59.778Z,26.30
2022-08-18T14:28:28.736Z,26.20
2022-08-18T14:30:58.581Z,26.10
2022-08-18T14:33:49.566Z,26.10
2022-08-18T14:36:18.990Z,25.90
2022-08-18T14:38:51.498Z,25.90
2022-08-18T14:41:20.842Z,25.90
2022-08-18T14:44:12.723Z,25.90
2022-08-18T14:46:51.988Z,25.90
2022-08-18T14:49:28.790Z,26.00
2022-08-18T14:51:59.446Z,26.20
2022-08-18T14:54:30.734Z,26.50
2022-08-18T14:57:01.648Z,26.70
2022-08-18T14:59:37.592Z,26.90
2022-08-18T15:02:13.027Z,27.10
2022-08-18T15:04:55.794Z,27.10
2022-08-18T15:07:26.746Z,27.00
2022-08-18T15:10:15.684Z,26.80
2022-08-18T15:12:45.772Z,26.60
2022-08-18T15:15:16.762Z,26.50
2022-08-18T15:17:49.575Z,26.30
2022-08-18T15:20:23.903Z,26.10
2022-08-18T15:23:22.787Z,26.10
2022-08-18T15:25:59.039Z,26.20
2022-08-18T15:28:27.950Z,26.20
2022-08-18T15:33:50.207Z,26.10
2022-08-18T15:36:28.719Z,26.10
2022-08-18T15:38:58.731Z,26.10
2022-08-18T15:41:35.585Z,26.00
2022-08-18T15:44:13.547Z,26.10
2022-08-18T15:46:42.278Z,26.00
2022-08-18T15:49:19.934Z,26.00
2022-08-18T15:51:52.448Z,26.00
2022-08-18T15:54:21.065Z,26.10
2022-08-18T15:56:57.734Z,26.00
2022-08-18T15:59:34.295Z,26.00
2022-08-18T16:02:11.652Z,26.00
2022-08-18T16:04:41.288Z,26.00
2022-08-18T16:07:11.755Z,26.20
2022-08-18T16:09:40.338Z,26.20
2022-08-18T16:12:11.334Z,26.30
2022-08-18T16:14:40.308Z,26.50
2022-08-18T16:17:23.486Z,26.80
2022-08-18T16:19:52.548Z,26.90
2022-08-18T16:22:23.219Z,27.00
2022-08-18T16:24:55.093Z,26.80
2022-08-18T16:27:29.653Z,26.80
2022-08-18T16:29:58.187Z,26.60
2022-08-18T16:32:26.972Z,26.30
2022-08-18T16:34:55.452Z,26.10
2022-08-18T16:37:24.027Z,25.80
2022-08-18T16:39:52.484Z,25.60
2022-08-18T16:42:21.258Z,25.40
2022-08-18T16:44:51.112Z,25.30
2022-08-18T16:47:19.572Z,25.10
2022-08-18T16:49:50.945Z,24.90
2022-08-18T16:52:20.037Z,24.80
2022-08-18T16:54:49.125Z,24.70
2022-08-18T16:57:50.576Z,24.70
2022-08-18T17:00:42.325Z,24.60
2022-08-18T17:03:29.642Z,24.50
2022-08-18T17:06:02.915Z,24.50
2022-08-18T17:08:34.109Z,24.30
2022-08-18T17:11:02.830Z,24.30
2022-08-18T17:13:31.796Z,24.20
2022-08-18T17:16:01.964Z,24.10
2022-08-18T17:18:30.546Z,24.10
2022-08-18T17:21:03.429Z,24.20
2022-08-18T17:23:32.190Z,24.20
2022-08-18T17:26:02.651Z,24.20
2022-08-18T17:28:43.931Z,24.20
2022-08-18T17:31:24.308Z,24.20
2022-08-18T17:33:57.185Z,24.30
2022-08-18T17:36:32.623Z,24.40
2022-08-18T17:39:04.255Z,24.40
2022-08-18T17:41:33.068Z,24.40
2022-08-18T17:44:03.232Z,24.30
2022-08-18T17:46:41.071Z,24.40
2022-08-18T17:49:18.796Z,24.20
2022-08-18T17:51:48.991Z,24.20
2022-08-18T17:54:30.568Z,24.20
2022-08-18T17:57:05.453Z,24.20
2022-08-18T17:59:46.155Z,24.20
2022-08-18T18:02:29.919Z,24.20
2022-08-18T18:04:59.729Z,24.00
2022-08-18T18:07:30.388Z,24.10
2022-08-18T18:10:01.859Z,24.00
2022-08-18T18:12:32.352Z,24.00
2022-08-18T18:15:02.115Z,24.00
2022-08-18T18:17:37.579Z,23.90
2022-08-18T18:20:17.319Z,23.80
2022-08-18T18:22:46.700Z,23.70
2022-08-18T18:25:34.478Z,23.60
2022-08-18T18:28:03.410Z,23.50
2022-08-18T18:30:32.774Z,23.40
2022-08-18T18:33:08.079Z,23.30
2022-08-18T18:35:53.454Z,23.20
2022-08-18T18:38:30.654Z,23.10
2022-08-18T18:41:02.475Z,23.10
2022-08-18T18:43:38.737Z,22.90
2022-08-18T18:46:30.196Z,22.80
2022-08-18T18:49:16.287Z,22.70
2022-08-18T18:51:54.815Z,22.60
2022-08-18T18:54:40.894Z,22.50
2022-08-18T18:57:14.473Z,22.50
2022-08-18T18:59:55.088Z,22.40
2022-08-18T19:02:34.600Z,22.30
2022-08-18T19:05:18.585Z,22.40
2022-08-18T19:08:00.096Z,22.20
2022-08-18T19:10:35.234Z,22.10
2022-08-18T19:13:10.492Z,22.00
2022-08-18T19:15:40.872Z,22.00
2022-08-18T19:18:22.293Z,21.90
2022-08-18T19:22:01.787Z,21.80
2022-08-18T19:23:47.344Z,21.70
2022-08-18T19:26:22.679Z,21.70
2022-08-18T19:29:01.169Z,21.60
2022-08-18T19:31:46.572Z,21.50
2022-08-18T19:34:19.312Z,21.40
2022-08-18T19:36:58.084Z,21.30
2022-08-18T19:39:33.458Z,21.30
2022-08-18T19:42:09.348Z,21.20
2022-08-18T19:44:47.406Z,21.10
2022-08-18T19:47:36.621Z,21.00
2022-08-18T19:50:13.701Z,20.90
2022-08-18T19:53:16.192Z,20.90
2022-08-18T19:56:10.221Z,20.90
2022-08-18T19:59:19.354Z,20.80
2022-08-18T20:02:01.593Z,20.70
2022-08-18T20:04:47.650Z,20.70
2022-08-18T20:07:43.260Z,20.70
2022-08-18T20:10:48.376Z,20.60
2022-08-18T20:13:32.797Z,20.50
2022-08-18T20:16:35.451Z,20.40
2022-08-18T20:19:45.790Z,20.40
2022-08-18T20:22:31.332Z,20.40
2022-08-18T20:25:05.969Z,20.40
2022-08-18T20:27:39.111Z,20.30
2022-08-18T20:30:33.928Z,20.20
2022-08-18T20:33:31.383Z,20.20
2022-08-18T20:36:20.127Z,20.10
2022-08-18T20:38:50.385Z,20.10
2022-08-18T20:41:38.085Z,20.00
2022-08-18T20:44:46.032Z,20.10
2022-08-18T20:47:29.271Z,20.00
2022-08-18T20:50:16.599Z,19.90
2022-08-18T20:52:58.188Z,19.80
2022-08-18T20:55:36.452Z,19.80
2022-08-18T20:58:11.665Z,19.80
2022-08-18T21:00:44.134Z,19.70
2022-08-18T21:03:15.692Z,19.70
2022-08-18T21:05:46.480Z,19.60
2022-08-18T21:08:26.449Z,19.60
2022-08-18T21:10:57.170Z,19.60
2022-08-18T21:13:31.550Z,19.60
2022-08-18T21:16:01.416Z,19.50
2022-08-18T21:18:30.073Z,19.60
2022-08-18T21:21:00.360Z,19.50
2022-08-18T21:23:30.869Z,19.40
2022-08-18T21:26:06.349Z,19.40
2022-08-18T21:28:38.762Z,19.40
2022-08-18T21:31:42.574Z,19.40
2022-08-18T21:34:18.402Z,19.40
2022-08-18T21:36:53.460Z,19.30
2022-08-18T21:39:24.073Z,19.30
2022-08-18T21:41:54.577Z,19.20
2022-08-18T21:44:26.454Z,19.20
2022-08-18T21:47:09.505Z,19.20
2022-08-18T21:49:38.029Z,19.20
2022-08-18T21:52:07.088Z,19.20
2022-08-18T21:54:35.849Z,19.10
2022-08-18T21:57:21.015Z,19.10
2022-08-18T22:00:12.623Z,19.00
2022-08-18T22:02:42.782Z,19.00
2022-08-18T22:05:12.017Z,19.00
2022-08-18T22:07:47.776Z,18.90
2022-08-18T22:10:43.545Z,18.90
2022-08-18T22:13:39.739Z,18.90
2022-08-18T22:16:28.162Z,18.80
2022-08-18T22:19:13.216Z,18.80
2022-08-18T22:21:46.472Z,18.80
2022-08-18T22:24:19.546Z,18.70
2022-08-18T22:26:51.589Z,18.70
2022-08-18T22:29:28.109Z,18.70
2022-08-18T22:31:56.913Z,18.60
2022-08-18T22:34:29.014Z,18.70
2022-08-18T22:37:00.496Z,18.60
2022-08-18T22:39:31.065Z,18.60
2022-08-18T22:41:59.784Z,18.50
2022-08-18T22:44:28.564Z,18.50
2022-08-18T22:46:57.575Z,18.60
2022-08-18T22:49:27.428Z,18.50
2022-08-18T22:51:57.781Z,18.40
2022-08-18T22:54:26.625Z,18.40
2022-08-18T22:56:57.632Z,18.40
2022-08-18T22:59:26.929Z,18.40
2022-08-18T23:01:57.884Z,18.40
2022-08-18T23:04:28.447Z,18.30
2022-08-18T23:06:57.170Z,18.30
2022-08-18T23:09:28.355Z,18.30
2022-08-18T23:12:00.989Z,18.30
2022-08-18T23:14:33.068Z,18.30
2022-08-18T23:17:02.457Z,18.20
2022-08-18T23:19:32.431Z,18.20
2022-08-18T23:22:01.352Z,18.20
2022-08-18T23:24:30.246Z,18.20
2022-08-18T23:26:59.155Z,18.30
2022-08-18T23:29:28.559Z,18.10
2022-08-18T23:31:57.063Z,18.10
2022-08-18T23:34:27.299Z,18.20
2022-08-18T23:37:00.883Z,18.10
2022-08-18T23:39:31.304Z,18.00
2022-08-18T23:42:01.637Z,18.00
2022-08-18T23:44:30.672Z,18.10
2022-08-18T23:47:00.130Z,17.90
2022-08-18T23:49:29.472Z,17.90
2022-08-18T23:52:01.040Z,17.90
2022-08-18T23:54:33.484Z,17.90
2022-08-18T23:57:02.516Z,17.80
2022-08-18T23:59:31.276Z,17.80
